sensor_id;sensor_type;location;lat;lon;timestamp;pressure;altitude;pressure_sealevel;temperature;humidity
60355;BME280;46198;51.464;-0.066;2022-12-07T00:01:19;102299.63;;;4.43;100.00
60355;BME280;46198;51.464;-0.066;2022-12-07T00:03:49;102312.34;;;4.41;100.00
60355;BME280;46198;51.464;-0.066;2022-12-07T00:06:19;102305.88;;;4.34;100.00
60355;BME280;46198;51.464;-0.066;2022-12-07T00:08:48;102305.72;;;4.36;100.00
60355;BME280;46198;51.464;-0.066;2022-12-07T00:11:19;102301.03;;;4.28;100.00
60355;BME280;46198;51.464;-0.066;2022-12-07T00:13:51;102296.22;;;4.41;100.00
60355;BME280;46198;51.464;-0.066;2022-12-07T00:16:21;102291.84;;;4.40;100.00
60355;BME280;46198;51.464;-0.066;2022-12-07T00:18:50;102292.28;;;4.36;100.00
60355;BME280;46198;51.464;-0.066;2022-12-07T00:21:20;102290.59;;;4.35;100.00
60355;BME280;46198;51.464;-0.066;2022-12-07T00:23:50;102292.97;;;4.28;100.00
60355;BME280;46198;51.464;-0.066;2022-12-07T00:26:21;102293.69;;;4.30;100.00
60355;BME280;46198;51.464;-0.066;2022-12-07T00:28:51;102287.91;;;4.35;100.00
60355;BME280;46198;51.464;-0.066;2022-12-07T00:31:21;102294.81;;;4.28;100.00
60355;BME280;46198;51.464;-0.066;2022-12-07T00:33:49;102295.53;;;4.20;100.00
60355;BME280;46198;51.464;-0.066;2022-12-07T00:36:19;102297.69;;;4.26;100.00
60355;BME280;46198;51.464;-0.066;2022-12-07T00:38:53;102297.38;;;4.29;100.00
60355;BME280;46198;51.464;-0.066;2022-12-07T00:41:24;102299.63;;;4.34;100.00
60355;BME280;46198;51.464;-0.066;2022-12-07T00:43:53;102299.06;;;4.30;100.00
60355;BME280;46198;51.464;-0.066;2022-12-07T00:46:22;102297.38;;;4.29;100.00
60355;BME280;46198;51.464;-0.066;2022-12-07T00:48:52;102306.16;;;4.21;100.00
60355;BME280;46198;51.464;-0.066;2022-12-07T00:51:22;102294.28;;;4.24;100.00
60355;BME280;46198;51.464;-0.066;2022-12-07T00:53:51;102294.69;;;4.19;100.00
60355;BME280;46198;51.464;-0.066;2022-12-07T00:56:24;102299.38;;;3.88;100.00
60355;BME280;46198;51.464;-0.066;2022-12-07T00:58:53;102294.28;;;4.05;100.00
60355;BME280;46198;51.464;-0.066;2022-12-07T01:01:23;102287.34;;;4.02;100.00
60355;BME280;46198;51.464;-0.066;2022-12-07T01:08:24;102282.38;;;3.88;100.00
60355;BME280;46198;51.464;-0.066;2022-12-07T01:10:58;102290.31;;;3.89;100.00
60355;BME280;46198;51.464;-0.066;2022-12-07T01:13:28;102277.88;;;3.88;100.00
60355;BME280;46198;51.464;-0.066;2022-12-07T01:15:57;102280.66;;;3.77;100.00
60355;BME280;46198;51.464;-0.066;2022-12-07T01:18:27;102275.03;;;3.80;100.00
60355;BME280;46198;51.464;-0.066;2022-12-07T01:21:00;102280.13;;;3.83;100.00
60355;BME280;46198;51.464;-0.066;2022-12-07T01:23:29;102282.50;;;3.67;100.00
60355;BME280;46198;51.464;-0.066;2022-12-07T01:25:58;102274.75;;;3.83;100.00
60355;BME280;46198;51.464;-0.066;2022-12-07T01:28:28;102277.00;;;3.88;100.00
60355;BME280;46198;51.464;-0.066;2022-12-07T01:30:58;102278.69;;;3.79;100.00
60355;BME280;46198;51.464;-0.066;2022-12-07T01:33:28;102274.16;;;3.80;100.00
60355;BME280;46198;51.464;-0.066;2022-12-07T01:36:00;102276.44;;;3.84;100.00
60355;BME280;46198;51.464;-0.066;2022-12-07T01:38:29;102272.06;;;3.83;100.00
60355;BME280;46198;51.464;-0.066;2022-12-07T01:40:59;102271.63;;;3.78;100.00
60355;BME280;46198;51.464;-0.066;2022-12-07T01:43:30;102273.31;;;3.79;100.00
60355;BME280;46198;51.464;-0.066;2022-12-07T01:45:59;102276.41;;;3.74;100.00
60355;BME280;46198;51.464;-0.066;2022-12-07T01:48:31;102266.94;;;3.70;100.00
60355;BME280;46198;51.464;-0.066;2022-12-07T01:51:04;102272.44;;;3.69;100.00
60355;BME280;46198;51.464;-0.066;2022-12-07T01:53:34;102270.47;;;3.71;100.00
60355;BME280;46198;51.464;-0.066;2022-12-07T01:56:05;102280.94;;;3.64;100.00
60355;BME280;46198;51.464;-0.066;2022-12-07T01:58:36;102279.94;;;3.65;100.00
60355;BME280;46198;51.464;-0.066;2022-12-07T02:01:05;102282.91;;;3.62;100.00
60355;BME280;46198;51.464;-0.066;2022-12-07T02:03:36;102276.09;;;3.58;100.00
60355;BME280;46198;51.464;-0.066;2022-12-07T02:06:06;102281.34;;;3.60;100.00
60355;BME280;46198;51.464;-0.066;2022-12-07T02:08:35;102276.41;;;3.65;100.00
60355;BME280;46198;51.464;-0.066;2022-12-07T02:11:04;102271.59;;;3.68;100.00
60355;BME280;46198;51.464;-0.066;2022-12-07T02:13:37;102271.03;;;3.65;100.00
60355;BME280;46198;51.464;-0.066;2022-12-07T02:16:17;102277.13;;;3.67;100.00
60355;BME280;46198;51.464;-0.066;2022-12-07T02:18:58;102274.16;;;3.70;100.00
60355;BME280;46198;51.464;-0.066;2022-12-07T02:21:38;102270.47;;;3.71;100.00
60355;BME280;46198;51.464;-0.066;2022-12-07T02:24:15;102264.66;;;3.66;100.00
60355;BME280;46198;51.464;-0.066;2022-12-07T02:30:07;102266.78;;;3.62;100.00
60355;BME280;46198;51.464;-0.066;2022-12-07T02:32:42;102266.38;;;3.67;100.00
60355;BME280;46198;51.464;-0.066;2022-12-07T02:35:17;102269.34;;;3.73;100.00
60355;BME280;46198;51.464;-0.066;2022-12-07T02:37:57;102261.84;;;3.77;100.00
60355;BME280;46198;51.464;-0.066;2022-12-07T02:40:30;102261.72;;;3.78;100.00
60355;BME280;46198;51.464;-0.066;2022-12-07T02:43:05;102270.22;;;3.84;100.00
60355;BME280;46198;51.464;-0.066;2022-12-07T02:45:38;102268.22;;;3.76;100.00
60355;BME280;46198;51.464;-0.066;2022-12-07T02:48:10;102265.53;;;3.76;100.00
60355;BME280;46198;51.464;-0.066;2022-12-07T02:50:44;102268.50;;;3.73;100.00
60355;BME280;46198;51.464;-0.066;2022-12-07T02:53:29;102275.72;;;3.82;100.00
60355;BME280;46198;51.464;-0.066;2022-12-07T02:55:58;102274.88;;;3.82;100.00
60355;BME280;46198;51.464;-0.066;2022-12-07T02:58:34;102268.78;;;3.70;100.00
60355;BME280;46198;51.464;-0.066;2022-12-07T03:01:16;102258.03;;;3.70;100.00
60355;BME280;46198;51.464;-0.066;2022-12-07T03:03:58;102264.94;;;3.63;100.00
60355;BME280;46198;51.464;-0.066;2022-12-07T03:06:32;102258.75;;;3.72;100.00
60355;BME280;46198;51.464;-0.066;2022-12-07T03:09:09;102259.16;;;3.77;100.00
60355;BME280;46198;51.464;-0.066;2022-12-07T03:11:44;102262.56;;;3.79;100.00
60355;BME280;46198;51.464;-0.066;2022-12-07T03:14:17;102259.00;;;3.69;100.00
60355;BME280;46198;51.464;-0.066;2022-12-07T03:16:52;102253.50;;;3.61;100.00
60355;BME280;46198;51.464;-0.066;2022-12-07T03:19:25;102254.66;;;3.68;100.00
60355;BME280;46198;51.464;-0.066;2022-12-07T03:21:58;102249.28;;;3.68;100.00
60355;BME280;46198;51.464;-0.066;2022-12-07T03:24:31;102241.94;;;3.70;100.00
60355;BME280;46198;51.464;-0.066;2022-12-07T03:27:04;102246.03;;;3.74;100.00
60355;BME280;46198;51.464;-0.066;2022-12-07T03:29:36;102237.41;;;3.70;100.00
60355;BME280;46198;51.464;-0.066;2022-12-07T03:32:12;102239.09;;;3.71;100.00
60355;BME280;46198;51.464;-0.066;2022-12-07T03:34:45;102241.66;;;3.73;100.00
60355;BME280;46198;51.464;-0.066;2022-12-07T03:37:18;102240.22;;;3.69;100.00
60355;BME280;46198;51.464;-0.066;2022-12-07T03:39:56;102239.09;;;3.71;100.00
60355;BME280;46198;51.464;-0.066;2022-12-07T03:42:25;102228.63;;;3.78;100.00
60355;BME280;46198;51.464;-0.066;2022-12-07T03:44:54;102231.47;;;3.76;100.00
60355;BME280;46198;51.464;-0.066;2022-12-07T03:47:27;102235.41;;;3.63;100.00
60355;BME280;46198;51.464;-0.066;2022-12-07T03:49:59;102230.03;;;3.63;100.00
60355;BME280;46198;51.464;-0.066;2022-12-07T03:52:35;102231.75;;;3.64;100.00
60355;BME280;46198;51.464;-0.066;2022-12-07T03:55:11;102227.06;;;3.66;100.00
60355;BME280;46198;51.464;-0.066;2022-12-07T03:57:43;102225.50;;;3.63;100.00
60355;BME280;46198;51.464;-0.066;2022-12-07T04:00:13;102228.34;;;3.62;100.00
60355;BME280;46198;51.464;-0.066;2022-12-07T04:02:43;102233.72;;;3.62;100.00
60355;BME280;46198;51.464;-0.066;2022-12-07T04:05:11;102226.91;;;3.58;100.00
60355;BME280;46198;51.464;-0.066;2022-12-07T04:07:40;102232.97;;;3.50;100.00
60355;BME280;46198;51.464;-0.066;2022-12-07T04:10:10;102231.56;;;3.55;100.00
60355;BME280;46198;51.464;-0.066;2022-12-07T04:12:39;102231.84;;;3.52;100.00
60355;BME280;46198;51.464;-0.066;2022-12-07T04:15:08;102233.56;;;3.53;100.00
60355;BME280;46198;51.464;-0.066;2022-12-07T04:17:36;102233.00;;;3.60;100.00
60355;BME280;46198;51.464;-0.066;2022-12-07T04:20:08;102234.00;;;3.59;100.00
60355;BME280;46198;51.464;-0.066;2022-12-07T04:22:36;102224.09;;;3.59;100.00
60355;BME280;46198;51.464;-0.066;2022-12-07T04:25:05;102232.72;;;3.63;100.00
60355;BME280;46198;51.464;-0.066;2022-12-07T04:27:33;102229.59;;;3.58;100.00
60355;BME280;46198;51.464;-0.066;2022-12-07T04:30:01;102231.16;;;3.50;100.00
60355;BME280;46198;51.464;-0.066;2022-12-07T04:32:30;102232.72;;;3.53;100.00
60355;BME280;46198;51.464;-0.066;2022-12-07T04:34:58;102234.97;;;3.58;100.00
60355;BME280;46198;51.464;-0.066;2022-12-07T04:37:27;102237.81;;;3.56;100.00
60355;BME280;46198;51.464;-0.066;2022-12-07T04:39:56;102229.72;;;3.46;100.00
60355;BME280;46198;51.464;-0.066;2022-12-07T04:42:24;102239.31;;;3.39;100.00
60355;BME280;46198;51.464;-0.066;2022-12-07T04:44:52;102239.91;;;3.52;100.00
60355;BME280;46198;51.464;-0.066;2022-12-07T04:47:20;102238.50;;;3.48;100.00
60355;BME280;46198;51.464;-0.066;2022-12-07T04:49:48;102232.00;;;3.51;100.00
60355;BME280;46198;51.464;-0.066;2022-12-07T04:52:16;102243.59;;;3.51;100.00
60355;BME280;46198;51.464;-0.066;2022-12-07T04:54:46;102232.13;;;3.49;100.00
60355;BME280;46198;51.464;-0.066;2022-12-07T04:57:14;102238.22;;;3.51;100.00
60355;BME280;46198;51.464;-0.066;2022-12-07T04:59:42;102230.44;;;3.58;100.00
60355;BME280;46198;51.464;-0.066;2022-12-07T05:02:11;102228.88;;;3.46;100.00
60355;BME280;46198;51.464;-0.066;2022-12-07T05:04:40;102231.69;;;3.44;100.00
60355;BME280;46198;51.464;-0.066;2022-12-07T05:07:08;102227.44;;;3.42;100.00
60355;BME280;46198;51.464;-0.066;2022-12-07T05:09:36;102224.66;;;3.43;100.00
60355;BME280;46198;51.464;-0.066;2022-12-07T05:12:05;102227.72;;;3.39;100.00
60355;BME280;46198;51.464;-0.066;2022-12-07T05:14:33;102230.56;;;3.47;100.00
60355;BME280;46198;51.464;-0.066;2022-12-07T05:17:02;102221.56;;;3.48;100.00
60355;BME280;46198;51.464;-0.066;2022-12-07T05:19:31;102215.31;;;3.47;100.00
60355;BME280;46198;51.464;-0.066;2022-12-07T05:21:59;102220.84;;;3.46;100.00
60355;BME280;46198;51.464;-0.066;2022-12-07T05:24:27;102211.34;;;3.42;100.00
60355;BME280;46198;51.464;-0.066;2022-12-07T05:26:55;102215.31;;;3.47;100.00
60355;BME280;46198;51.464;-0.066;2022-12-07T05:29:24;102211.94;;;3.55;100.00
60355;BME280;46198;51.464;-0.066;2022-12-07T05:31:52;102205.59;;;3.56;100.00
60355;BME280;46198;51.464;-0.066;2022-12-07T05:34:21;102206.72;;;3.53;100.00
60355;BME280;46198;51.464;-0.066;2022-12-07T05:36:49;102213.63;;;3.46;100.00
60355;BME280;46198;51.464;-0.066;2022-12-07T05:39:17;102210.22;;;3.44;100.00
60355;BME280;46198;51.464;-0.066;2022-12-07T05:41:45;102217.16;;;3.47;100.00
60355;BME280;46198;51.464;-0.066;2022-12-07T05:44:32;102216.47;;;3.45;100.00
60355;BME280;46198;51.464;-0.066;2022-12-07T05:47:00;102206.13;;;3.50;100.00
60355;BME280;46198;51.464;-0.066;2022-12-07T05:49:28;102208.81;;;3.50;100.00
60355;BME280;46198;51.464;-0.066;2022-12-07T05:51:56;102211.38;;;3.51;100.00
60355;BME280;46198;51.464;-0.066;2022-12-07T05:54:24;102207.69;;;3.43;100.00
60355;BME280;46198;51.464;-0.066;2022-12-07T05:56:53;102215.59;;;3.44;100.00
60355;BME280;46198;51.464;-0.066;2022-12-07T05:59:21;102207.41;;;3.46;100.00
60355;BME280;46198;51.464;-0.066;2022-12-07T06:01:53;102204.31;;;3.50;100.00
60355;BME280;46198;51.464;-0.066;2022-12-07T06:04:22;102197.81;;;3.53;100.00
60355;BME280;46198;51.464;-0.066;2022-12-07T06:06:51;102197.50;;;3.46;100.00
60355;BME280;46198;51.464;-0.066;2022-12-07T06:09:20;102201.06;;;3.57;100.00
60355;BME280;46198;51.464;-0.066;2022-12-07T06:11:49;102193.72;;;3.59;100.00
60355;BME280;46198;51.464;-0.066;2022-12-07T06:14:34;102207.16;;;3.59;100.00
60355;BME280;46198;51.464;-0.066;2022-12-07T06:17:04;102204.59;;;3.57;100.00
60355;BME280;46198;51.464;-0.066;2022-12-07T06:19:33;102203.88;;;3.55;100.00
60355;BME280;46198;51.464;-0.066;2022-12-07T06:22:02;102205.72;;;3.54;100.00
60355;BME280;46198;51.464;-0.066;2022-12-07T06:24:31;102208.84;;;3.60;100.00
60355;BME280;46198;51.464;-0.066;2022-12-07T06:27:00;102200.50;;;3.63;100.00
60355;BME280;46198;51.464;-0.066;2022-12-07T06:29:28;102202.59;;;3.69;100.00
60355;BME280;46198;51.464;-0.066;2022-12-07T06:31:56;102203.72;;;3.66;100.00
60355;BME280;46198;51.464;-0.066;2022-12-07T06:34:26;102207.56;;;3.64;100.00
60355;BME280;46198;51.464;-0.066;2022-12-07T06:36:54;102208.41;;;3.64;100.00
60355;BME280;46198;51.464;-0.066;2022-12-07T06:39:24;102212.78;;;3.65;100.00
60355;BME280;46198;51.464;-0.066;2022-12-07T06:41:53;102204.03;;;3.63;100.00
60355;BME280;46198;51.464;-0.066;2022-12-07T06:44:22;102213.09;;;3.72;100.00
60355;BME280;46198;51.464;-0.066;2022-12-07T06:46:51;102222.41;;;3.68;100.00
60355;BME280;46198;51.464;-0.066;2022-12-07T06:49:39;102216.75;;;3.61;100.00
60355;BME280;46198;51.464;-0.066;2022-12-07T06:52:35;102217.31;;;3.65;100.00
60355;BME280;46198;51.464;-0.066;2022-12-07T06:55:03;102211.94;;;3.65;100.00
60355;BME280;46198;51.464;-0.066;2022-12-07T06:57:31;102213.63;;;3.66;100.00
60355;BME280;46198;51.464;-0.066;2022-12-07T06:59:59;102216.19;;;3.67;100.00
60355;BME280;46198;51.464;-0.066;2022-12-07T07:02:28;102222.69;;;3.65;100.00
60355;BME280;46198;51.464;-0.066;2022-12-07T07:04:58;102209.13;;;3.57;100.00
60355;BME280;46198;51.464;-0.066;2022-12-07T07:07:26;102225.22;;;3.66;100.00
60355;BME280;46198;51.464;-0.066;2022-12-07T07:09:54;102222.41;;;3.68;100.00
60355;BME280;46198;51.464;-0.066;2022-12-07T07:12:22;102230.34;;;3.69;100.00
60355;BME280;46198;51.464;-0.066;2022-12-07T07:14:50;102221.00;;;3.73;100.00
60355;BME280;46198;51.464;-0.066;2022-12-07T07:17:18;102215.78;;;3.72;100.00
60355;BME280;46198;51.464;-0.066;2022-12-07T07:19:47;102223.97;;;3.70;100.00
60355;BME280;46198;51.464;-0.066;2022-12-07T07:22:16;102215.63;;;3.64;100.00
60355;BME280;46198;51.464;-0.066;2022-12-07T07:24:45;102219.72;;;3.68;100.00
60355;BME280;46198;51.464;-0.066;2022-12-07T07:27:13;102220.16;;;3.73;100.00
60355;BME280;46198;51.464;-0.066;2022-12-07T07:29:41;102227.06;;;3.66;100.00
60355;BME280;46198;51.464;-0.066;2022-12-07T07:32:09;102223.81;;;3.62;100.00
60355;BME280;46198;51.464;-0.066;2022-12-07T07:34:37;102224.66;;;3.63;100.00
60355;BME280;46198;51.464;-0.066;2022-12-07T07:37:05;102218.72;;;3.49;100.00
60355;BME280;46198;51.464;-0.066;2022-12-07T07:39:34;102225.50;;;3.53;100.00
60355;BME280;46198;51.464;-0.066;2022-12-07T07:42:03;102229.28;;;3.41;100.00
60355;BME280;46198;51.464;-0.066;2022-12-07T07:44:32;102221.28;;;3.51;100.00
60355;BME280;46198;51.464;-0.066;2022-12-07T07:47:01;102226.75;;;3.49;100.00
60355;BME280;46198;51.464;-0.066;2022-12-07T07:49:29;102225.22;;;3.47;100.00
60355;BME280;46198;51.464;-0.066;2022-12-07T07:51:58;102228.19;;;3.53;100.00
60355;BME280;46198;51.464;-0.066;2022-12-07T07:54:26;102236.78;;;3.47;100.00
60355;BME280;46198;51.464;-0.066;2022-12-07T07:56:55;102236.50;;;3.41;100.00
60355;BME280;46198;51.464;-0.066;2022-12-07T07:59:24;102236.09;;;3.45;100.00
60355;BME280;46198;51.464;-0.066;2022-12-07T08:01:52;102239.78;;;3.54;100.00
60355;BME280;46198;51.464;-0.066;2022-12-07T08:04:21;102239.06;;;3.52;100.00
60355;BME280;46198;51.464;-0.066;2022-12-07T08:06:49;102239.06;;;3.52;100.00
60355;BME280;46198;51.464;-0.066;2022-12-07T08:09:17;102242.34;;;3.65;100.00
60355;BME280;46198;51.464;-0.066;2022-12-07T08:11:45;102233.44;;;3.65;100.00
60355;BME280;46198;51.464;-0.066;2022-12-07T08:14:15;102239.06;;;3.52;100.00
60355;BME280;46198;51.464;-0.066;2022-12-07T08:16:44;102241.31;;;3.47;100.00
60355;BME280;46198;51.464;-0.066;2022-12-07T08:19:12;102236.53;;;3.50;100.00
60355;BME280;46198;51.464;-0.066;2022-12-07T08:21:40;102232.00;;;3.51;100.00
60355;BME280;46198;51.464;-0.066;2022-12-07T08:24:08;102243.88;;;3.58;100.00
60355;BME280;46198;51.464;-0.066;2022-12-07T08:26:36;102243.84;;;3.39;100.00
60355;BME280;46198;51.464;-0.066;2022-12-07T08:29:04;102242.44;;;3.44;100.00
60355;BME280;46198;51.464;-0.066;2022-12-07T08:31:34;102237.06;;;3.44;100.00
60355;BME280;46198;51.464;-0.066;2022-12-07T08:34:02;102230.72;;;3.45;100.00
60355;BME280;46198;51.464;-0.066;2022-12-07T08:36:31;102242.31;;;3.46;100.00
60355;BME280;46198;51.464;-0.066;2022-12-07T08:38:59;102239.34;;;3.49;100.00
60355;BME280;46198;51.464;-0.066;2022-12-07T08:41:47;102238.34;;;3.50;100.00
60355;BME280;46198;51.464;-0.066;2022-12-07T08:44:15;102230.16;;;3.51;100.00
60355;BME280;46198;51.464;-0.066;2022-12-07T08:46:47;102234.69;;;3.51;100.00
60355;BME280;46198;51.464;-0.066;2022-12-07T08:49:20;102227.22;;;3.45;100.00
60355;BME280;46198;51.464;-0.066;2022-12-07T08:56:40;102238.78;;;3.45;100.00
60355;BME280;46198;51.464;-0.066;2022-12-07T08:59:10;102233.69;;;3.52;100.00
60355;BME280;46198;51.464;-0.066;2022-12-07T09:01:38;102227.06;;;3.46;100.00
60355;BME280;46198;51.464;-0.066;2022-12-07T09:04:08;102220.44;;;3.50;100.00
60355;BME280;46198;51.464;-0.066;2022-12-07T09:06:36;102235.53;;;3.51;100.00
60355;BME280;46198;51.464;-0.066;2022-12-07T09:09:05;102231.16;;;3.50;100.00
60355;BME280;46198;51.464;-0.066;2022-12-07T09:11:34;102233.13;;;3.48;100.00
60355;BME280;46198;51.464;-0.066;2022-12-07T09:14:02;102232.28;;;3.58;100.00
60355;BME280;46198;51.464;-0.066;2022-12-07T09:20:17;102226.47;;;3.52;100.00
60355;BME280;46198;51.464;-0.066;2022-12-07T09:22:53;102219.56;;;3.60;100.00
60355;BME280;46198;51.464;-0.066;2022-12-07T09:25:21;102224.38;;;3.66;100.00
60355;BME280;46198;51.464;-0.066;2022-12-07T09:31:12;102225.22;;;3.57;100.00
60355;BME280;46198;51.464;-0.066;2022-12-07T09:34:18;102218.72;;;3.49;100.00
60355;BME280;46198;51.464;-0.066;2022-12-07T09:36:48;102222.66;;;3.55;100.00
60355;BME280;46198;51.464;-0.066;2022-12-07T09:39:16;102209.97;;;3.57;100.00
60355;BME280;46198;51.464;-0.066;2022-12-07T09:41:45;102212.38;;;3.60;100.00
60355;BME280;46198;51.464;-0.066;2022-12-07T09:44:18;102206.84;;;3.71;100.00
60355;BME280;46198;51.464;-0.066;2022-12-07T09:46:48;102206.41;;;3.66;100.00
60355;BME280;46198;51.464;-0.066;2022-12-07T09:49:20;102211.53;;;3.60;100.00
60355;BME280;46198;51.464;-0.066;2022-12-07T09:52:00;102210.25;;;3.64;100.00
60355;BME280;46198;51.464;-0.066;2022-12-07T09:54:29;102212.22;;;3.62;100.00
60355;BME280;46198;51.464;-0.066;2022-12-07T09:56:58;102204.91;;;3.64;100.00
60355;BME280;46198;51.464;-0.066;2022-12-07T09:59:26;102201.75;;;3.68;100.00
60355;BME280;46198;51.464;-0.066;2022-12-07T10:02:23;102202.22;;;3.64;100.00
60355;BME280;46198;51.464;-0.066;2022-12-07T10:04:52;102204.03;;;3.73;100.00
60355;BME280;46198;51.464;-0.066;2022-12-07T10:07:22;102192.16;;;3.75;100.00
60355;BME280;46198;51.464;-0.066;2022-12-07T10:09:50;102192.72;;;3.79;100.00
60355;BME280;46198;51.464;-0.066;2022-12-07T10:12:18;102202.75;;;3.67;100.00
60355;BME280;46198;51.464;-0.066;2022-12-07T10:14:54;102205.44;;;3.77;100.00
60355;BME280;46198;51.464;-0.066;2022-12-07T10:17:40;102195.25;;;3.71;100.00
60355;BME280;46198;51.464;-0.066;2022-12-07T10:20:22;102188.88;;;3.52;100.00
60355;BME280;46198;51.464;-0.066;2022-12-07T10:22:57;102191.84;;;3.69;100.00
60355;BME280;46198;51.464;-0.066;2022-12-07T10:25:28;102187.34;;;3.60;100.00
60355;BME280;46198;51.464;-0.066;2022-12-07T10:28:10;102185.94;;;3.65;100.00
60355;BME280;46198;51.464;-0.066;2022-12-07T10:30:50;102170.66;;;3.66;100.00
60355;BME280;46198;51.464;-0.066;2022-12-07T10:33:34;102168.69;;;3.68;100.00
60355;BME280;46198;51.464;-0.066;2022-12-07T10:36:17;102172.09;;;3.70;100.00
60355;BME280;46198;51.464;-0.066;2022-12-07T10:38:49;102164.03;;;3.70;100.00
60355;BME280;46198;51.464;-0.066;2022-12-07T10:41:18;102161.78;;;3.75;100.00
60355;BME280;46198;51.464;-0.066;2022-12-07T10:43:48;102158.50;;;3.81;100.00
60355;BME280;46198;51.464;-0.066;2022-12-07T10:46:29;102152.00;;;3.84;100.00
60355;BME280;46198;51.464;-0.066;2022-12-07T10:49:07;102154.56;;;3.75;100.00
60355;BME280;46198;51.464;-0.066;2022-12-07T10:51:45;102153.69;;;3.85;100.00
60355;BME280;46198;51.464;-0.066;2022-12-07T10:54:22;102147.59;;;3.92;100.00
60355;BME280;46198;51.464;-0.066;2022-12-07T10:57:08;102145.47;;;3.96;100.00
60355;BME280;46198;51.464;-0.066;2022-12-07T10:59:53;102150.56;;;3.89;100.00
60355;BME280;46198;51.464;-0.066;2022-12-07T11:02:41;102156.53;;;3.83;100.00
60355;BME280;46198;51.464;-0.066;2022-12-07T11:05:21;102153.97;;;3.91;100.00
60355;BME280;46198;51.464;-0.066;2022-12-07T11:08:00;102163.00;;;3.90;100.00
60355;BME280;46198;51.464;-0.066;2022-12-07T11:10:40;102152.72;;;3.76;100.00
60355;BME280;46198;51.464;-0.066;2022-12-07T11:13:22;102150.41;;;4.00;100.00
60355;BME280;46198;51.464;-0.066;2022-12-07T11:16:05;102138.28;;;3.96;100.00
60355;BME280;46198;51.464;-0.066;2022-12-07T11:18:44;102132.31;;;4.03;100.00
60355;BME280;46198;51.464;-0.066;2022-12-07T11:21:20;102128.06;;;4.00;100.00
60355;BME280;46198;51.464;-0.066;2022-12-07T11:23:58;102131.31;;;4.04;100.00
60355;BME280;46198;51.464;-0.066;2022-12-07T11:26:48;102120.25;;;4.07;100.00
60355;BME280;46198;51.464;-0.066;2022-12-07T11:29:43;102113.97;;;4.26;100.00
60355;BME280;46198;51.464;-0.066;2022-12-07T11:32:18;102116.47;;;4.37;100.00
60355;BME280;46198;51.464;-0.066;2022-12-07T11:34:59;102113.66;;;4.38;100.00
60355;BME280;46198;51.464;-0.066;2022-12-07T11:37:34;102119.94;;;4.29;100.00
60355;BME280;46198;51.464;-0.066;2022-12-07T11:40:14;102107.16;;;4.31;100.00
60355;BME280;46198;51.464;-0.066;2022-12-07T11:42:50;102105.19;;;4.33;100.00
60355;BME280;46198;51.464;-0.066;2022-12-07T11:45:24;102103.50;;;4.32;100.00
60355;BME280;46198;51.464;-0.066;2022-12-07T11:47:55;102099.78;;;4.43;100.00
60355;BME280;46198;51.464;-0.066;2022-12-07T11:50:30;102091.81;;;4.51;100.00
60355;BME280;46198;51.464;-0.066;2022-12-07T11:53:03;102085.06;;;4.37;100.00
60355;BME280;46198;51.464;-0.066;2022-12-07T11:55:41;102081.34;;;4.48;100.00
60355;BME280;46198;51.464;-0.066;2022-12-07T11:58:27;102092.44;;;4.35;100.00
60355;BME280;46198;51.464;-0.066;2022-12-07T12:01:11;102086.25;;;4.53;100.00
60355;BME280;46198;51.464;-0.066;2022-12-07T12:03:44;102079.28;;;4.60;100.00
60355;BME280;46198;51.464;-0.066;2022-12-07T12:06:20;102078.50;;;4.50;100.00
60355;BME280;46198;51.464;-0.066;2022-12-07T12:08:53;102079.09;;;4.43;100.00
60355;BME280;46198;51.464;-0.066;2022-12-07T12:12:15;102075.59;;;4.61;100.00
60355;BME280;46198;51.464;-0.066;2022-12-07T12:15:20;102062.34;;;4.50;100.00
60355;BME280;46198;51.464;-0.066;2022-12-07T12:20:56;102051.91;;;4.47;100.00
60355;BME280;46198;51.464;-0.066;2022-12-07T12:23:33;102042.34;;;4.62;100.00
60355;BME280;46198;51.464;-0.066;2022-12-07T12:26:05;102024.97;;;4.56;100.00
60355;BME280;46198;51.464;-0.066;2022-12-07T12:28:39;102036.25;;;4.60;100.00
60355;BME280;46198;51.464;-0.066;2022-12-07T12:31:32;102035.63;;;4.66;100.00
60355;BME280;46198;51.464;-0.066;2022-12-07T12:34:04;102026.59;;;4.39;100.00
60355;BME280;46198;51.464;-0.066;2022-12-07T12:36:46;102027.16;;;4.61;100.00
60355;BME280;46198;51.464;-0.066;2022-12-07T12:39:16;102025.72;;;4.49;100.00
60355;BME280;46198;51.464;-0.066;2022-12-07T12:42:12;102029.09;;;4.51;100.00
60355;BME280;46198;51.464;-0.066;2022-12-07T12:45:19;102014.66;;;4.52;100.00
60355;BME280;46198;51.464;-0.066;2022-12-07T12:54:04;102007.44;;;4.70;100.00
60355;BME280;46198;51.464;-0.066;2022-12-07T12:56:39;102009.53;;;4.76;100.00
60355;BME280;46198;51.464;-0.066;2022-12-07T12:59:28;101999.06;;;4.73;100.00
60355;BME280;46198;51.464;-0.066;2022-12-07T13:02:22;101998.84;;;4.84;100.00
60355;BME280;46198;51.464;-0.066;2022-12-07T13:05:18;101989.44;;;4.88;100.00
60355;BME280;46198;51.464;-0.066;2022-12-07T13:07:52;101993.16;;;4.87;100.00
60355;BME280;46198;51.464;-0.066;2022-12-07T13:10:30;101985.84;;;4.98;100.00
60355;BME280;46198;51.464;-0.066;2022-12-07T13:13:03;101984.31;;;4.95;100.00
60355;BME280;46198;51.464;-0.066;2022-12-07T13:15:33;101988.59;;;4.88;100.00
60355;BME280;46198;51.464;-0.066;2022-12-07T13:18:22;101979.22;;;4.92;100.00
60355;BME280;46198;51.464;-0.066;2022-12-07T13:20:52;101966.00;;;4.99;100.00
60355;BME280;46198;51.464;-0.066;2022-12-07T13:23:28;101971.06;;;5.02;100.00
60355;BME280;46198;51.464;-0.066;2022-12-07T13:26:05;101968.00;;;4.97;100.00
60355;BME280;46198;51.464;-0.066;2022-12-07T13:28:45;101957.97;;;5.07;100.00
60355;BME280;46198;51.464;-0.066;2022-12-07T13:31:30;101962.44;;;5.16;100.00
60355;BME280;46198;51.464;-0.066;2022-12-07T13:34:00;101962.44;;;5.16;100.00
60355;BME280;46198;51.464;-0.066;2022-12-07T13:36:30;101960.28;;;5.20;100.00
60355;BME280;46198;51.464;-0.066;2022-12-07T13:39:18;101958.34;;;5.30;100.00